Saint Martin, Minnesota
Current Conditions -  °F | °C
As of 2:13 AM on Thursday 27 Nov 2014 (Local Time) from KPEX Reporting Station
Clear Clear  
Wind Chill: -19°   Ceiling: Unl
Heat Index: -6°   Visibility: 10mi
Dew Point: -10°   Wind: 6mph
Humidity: 82%   Direction: 280°W
Pressure: 30.48"   Gusts: NA
Location:  45.5°N, 94.67°W
Report Text: KPEX 270813Z AUTO 28005KT 10SM CLR M21/M23 A3048 RMK AO2 T12121235
Loading
Personal Weather Stations






























Interactive Weather Map New forecast layout! Learn more

10-Day Weather Forecast

Advertisements
Track Severe Weather on mobile